sensor_id;sensor_type;location;lat;lon;timestamp;P1;durP1;ratioP1;P2;durP2;ratioP2
10939;SDS011;5522;42.696;23.494;2023-05-31T00:02:25;3.30;;;0.70;;
10939;SDS011;5522;42.696;23.494;2023-05-31T00:04:54;0.50;;;0.50;;
10939;SDS011;5522;42.696;23.494;2023-05-31T00:07:20;2.47;;;0.60;;
10939;SDS011;5522;42.696;23.494;2023-05-31T00:09:47;1.05;;;0.60;;
10939;SDS011;5522;42.696;23.494;2023-05-31T00:12:14;3.53;;;0.75;;
10939;SDS011;5522;42.696;23.494;2023-05-31T00:14:41;3.05;;;0.70;;
10939;SDS011;5522;42.696;23.494;2023-05-31T00:17:08;0.52;;;0.52;;
10939;SDS011;5522;42.696;23.494;2023-05-31T00:19:34;0.60;;;0.60;;
10939;SDS011;5522;42.696;23.494;2023-05-31T00:22:03;1.52;;;0.70;;
10939;SDS011;5522;42.696;23.494;2023-05-31T00:24:30;0.60;;;0.60;;
10939;SDS011;5522;42.696;23.494;2023-05-31T00:27:00;1.17;;;0.70;;
10939;SDS011;5522;42.696;23.494;2023-05-31T00:29:27;2.45;;;1.00;;
10939;SDS011;5522;42.696;23.494;2023-05-31T00:31:55;0.80;;;0.80;;
10939;SDS011;5522;42.696;23.494;2023-05-31T00:34:22;0.73;;;0.73;;
10939;SDS011;5522;42.696;23.494;2023-05-31T00:36:49;0.70;;;0.70;;
10939;SDS011;5522;42.696;23.494;2023-05-31T00:39:17;1.20;;;0.60;;
10939;SDS011;5522;42.696;23.494;2023-05-31T00:41:44;1.48;;;0.50;;
10939;SDS011;5522;42.696;23.494;2023-05-31T00:44:11;1.45;;;0.80;;
10939;SDS011;5522;42.696;23.494;2023-05-31T00:46:38;1.25;;;0.75;;
10939;SDS011;5522;42.696;23.494;2023-05-31T00:49:06;0.98;;;0.90;;
10939;SDS011;5522;42.696;23.494;2023-05-31T00:51:34;1.75;;;0.68;;
10939;SDS011;5522;42.696;23.494;2023-05-31T00:54:02;1.75;;;0.70;;
10939;SDS011;5522;42.696;23.494;2023-05-31T00:56:30;0.80;;;0.80;;
10939;SDS011;5522;42.696;23.494;2023-05-31T00:58:58;1.80;;;0.73;;
10939;SDS011;5522;42.696;23.494;2023-05-31T01:06:36;1.88;;;0.63;;
10939;SDS011;5522;42.696;23.494;2023-05-31T01:09:20;2.20;;;0.60;;
10939;SDS011;5522;42.696;23.494;2023-05-31T01:11:53;1.52;;;0.60;;
10939;SDS011;5522;42.696;23.494;2023-05-31T01:14:29;0.75;;;0.63;;
10939;SDS011;5522;42.696;23.494;2023-05-31T01:17:05;0.90;;;0.52;;
10939;SDS011;5522;42.696;23.494;2023-05-31T01:19:42;0.65;;;0.57;;
10939;SDS011;5522;42.696;23.494;2023-05-31T01:22:16;0.70;;;0.68;;
10939;SDS011;5522;42.696;23.494;2023-05-31T01:24:58;1.10;;;0.73;;
10939;SDS011;5522;42.696;23.494;2023-05-31T01:27:41;1.83;;;0.82;;
10939;SDS011;5522;42.696;23.494;2023-05-31T01:30:08;0.85;;;0.85;;
10939;SDS011;5522;42.696;23.494;2023-05-31T01:32:36;2.15;;;0.70;;
10939;SDS011;5522;42.696;23.494;2023-05-31T01:35:04;1.92;;;0.95;;
10939;SDS011;5522;42.696;23.494;2023-05-31T01:37:31;0.73;;;0.73;;
10939;SDS011;5522;42.696;23.494;2023-05-31T01:39:58;1.02;;;0.90;;
10939;SDS011;5522;42.696;23.494;2023-05-31T01:42:25;1.05;;;0.90;;
10939;SDS011;5522;42.696;23.494;2023-05-31T01:44:55;1.15;;;0.60;;
10939;SDS011;5522;42.696;23.494;2023-05-31T01:47:23;2.25;;;0.80;;
10939;SDS011;5522;42.696;23.494;2023-05-31T01:49:50;4.60;;;1.25;;
10939;SDS011;5522;42.696;23.494;2023-05-31T01:52:19;1.00;;;1.00;;
10939;SDS011;5522;42.696;23.494;2023-05-31T01:54:46;0.90;;;0.90;;
10939;SDS011;5522;42.696;23.494;2023-05-31T01:57:13;1.27;;;0.98;;
10939;SDS011;5522;42.696;23.494;2023-05-31T01:59:40;1.40;;;1.10;;
10939;SDS011;5522;42.696;23.494;2023-05-31T02:02:10;2.65;;;1.17;;
10939;SDS011;5522;42.696;23.494;2023-05-31T02:04:37;5.13;;;1.40;;
10939;SDS011;5522;42.696;23.494;2023-05-31T02:07:04;1.05;;;1.05;;
10939;SDS011;5522;42.696;23.494;2023-05-31T02:09:33;4.18;;;1.30;;
10939;SDS011;5522;42.696;23.494;2023-05-31T02:12:00;5.30;;;1.20;;
10939;SDS011;5522;42.696;23.494;2023-05-31T02:14:27;1.65;;;1.65;;
10939;SDS011;5522;42.696;23.494;2023-05-31T02:16:54;6.35;;;1.67;;
10939;SDS011;5522;42.696;23.494;2023-05-31T02:19:22;2.05;;;1.63;;
10939;SDS011;5522;42.696;23.494;2023-05-31T02:21:50;1.60;;;1.60;;
10939;SDS011;5522;42.696;23.494;2023-05-31T02:24:17;3.13;;;1.42;;
10939;SDS011;5522;42.696;23.494;2023-05-31T02:26:44;2.80;;;1.92;;
10939;SDS011;5522;42.696;23.494;2023-05-31T02:29:11;5.25;;;1.63;;
10939;SDS011;5522;42.696;23.494;2023-05-31T02:31:38;2.20;;;1.95;;
10939;SDS011;5522;42.696;23.494;2023-05-31T02:34:04;4.47;;;1.70;;
10939;SDS011;5522;42.696;23.494;2023-05-31T02:36:33;2.35;;;2.10;;
10939;SDS011;5522;42.696;23.494;2023-05-31T02:38:59;2.30;;;1.73;;
10939;SDS011;5522;42.696;23.494;2023-05-31T02:41:26;2.80;;;1.30;;
10939;SDS011;5522;42.696;23.494;2023-05-31T02:43:53;3.13;;;0.95;;
10939;SDS011;5522;42.696;23.494;2023-05-31T02:46:20;1.00;;;1.00;;
10939;SDS011;5522;42.696;23.494;2023-05-31T02:48:47;2.50;;;1.00;;
10939;SDS011;5522;42.696;23.494;2023-05-31T02:51:13;1.35;;;0.93;;
10939;SDS011;5522;42.696;23.494;2023-05-31T02:53:42;1.13;;;1.10;;
10939;SDS011;5522;42.696;23.494;2023-05-31T02:56:09;4.20;;;1.10;;
10939;SDS011;5522;42.696;23.494;2023-05-31T02:58:36;3.22;;;1.30;;
10939;SDS011;5522;42.696;23.494;2023-05-31T03:01:03;4.43;;;1.20;;
10939;SDS011;5522;42.696;23.494;2023-05-31T03:03:30;1.25;;;1.15;;
10939;SDS011;5522;42.696;23.494;2023-05-31T03:05:57;1.55;;;1.52;;
10939;SDS011;5522;42.696;23.494;2023-05-31T03:08:24;2.90;;;1.45;;
10939;SDS011;5522;42.696;23.494;2023-05-31T03:10:52;1.80;;;1.52;;
10939;SDS011;5522;42.696;23.494;2023-05-31T03:13:19;2.60;;;1.20;;
10939;SDS011;5522;42.696;23.494;2023-05-31T03:15:46;1.40;;;1.27;;
10939;SDS011;5522;42.696;23.494;2023-05-31T03:18:13;3.10;;;1.67;;
10939;SDS011;5522;42.696;23.494;2023-05-31T03:20:40;2.55;;;1.50;;
10939;SDS011;5522;42.696;23.494;2023-05-31T03:23:07;4.88;;;1.90;;
10939;SDS011;5522;42.696;23.494;2023-05-31T03:25:34;1.77;;;1.67;;
10939;SDS011;5522;42.696;23.494;2023-05-31T03:28:03;3.00;;;1.73;;
10939;SDS011;5522;42.696;23.494;2023-05-31T03:30:30;2.60;;;1.40;;
10939;SDS011;5522;42.696;23.494;2023-05-31T03:32:57;2.20;;;1.48;;
10939;SDS011;5522;42.696;23.494;2023-05-31T03:35:23;2.67;;;1.90;;
10939;SDS011;5522;42.696;23.494;2023-05-31T03:37:51;2.65;;;1.30;;
10939;SDS011;5522;42.696;23.494;2023-05-31T03:40:18;3.40;;;1.50;;
10939;SDS011;5522;42.696;23.494;2023-05-31T03:42:45;3.58;;;1.70;;
10939;SDS011;5522;42.696;23.494;2023-05-31T03:45:13;1.50;;;1.40;;
10939;SDS011;5522;42.696;23.494;2023-05-31T03:47:40;2.60;;;1.85;;
10939;SDS011;5522;42.696;23.494;2023-05-31T03:50:07;3.05;;;1.25;;
10939;SDS011;5522;42.696;23.494;2023-05-31T03:52:35;2.70;;;1.50;;
10939;SDS011;5522;42.696;23.494;2023-05-31T03:55:04;4.15;;;1.50;;
10939;SDS011;5522;42.696;23.494;2023-05-31T03:57:31;2.90;;;1.45;;
10939;SDS011;5522;42.696;23.494;2023-05-31T03:59:58;2.10;;;1.35;;
10939;SDS011;5522;42.696;23.494;2023-05-31T04:02:27;1.63;;;1.52;;
10939;SDS011;5522;42.696;23.494;2023-05-31T04:04:54;1.60;;;1.50;;
10939;SDS011;5522;42.696;23.494;2023-05-31T04:07:21;1.70;;;1.60;;
10939;SDS011;5522;42.696;23.494;2023-05-31T04:09:48;3.33;;;1.75;;
10939;SDS011;5522;42.696;23.494;2023-05-31T04:12:14;3.00;;;1.23;;
10939;SDS011;5522;42.696;23.494;2023-05-31T04:14:41;2.30;;;0.82;;
10939;SDS011;5522;42.696;23.494;2023-05-31T04:17:08;1.98;;;1.02;;
10939;SDS011;5522;42.696;23.494;2023-05-31T04:19:37;3.63;;;1.15;;
10939;SDS011;5522;42.696;23.494;2023-05-31T04:22:04;2.30;;;1.20;;
10939;SDS011;5522;42.696;23.494;2023-05-31T04:24:31;1.58;;;1.05;;
10939;SDS011;5522;42.696;23.494;2023-05-31T04:26:58;1.45;;;1.35;;
10939;SDS011;5522;42.696;23.494;2023-05-31T04:29:28;1.95;;;1.42;;
10939;SDS011;5522;42.696;23.494;2023-05-31T04:31:54;2.15;;;1.00;;
10939;SDS011;5522;42.696;23.494;2023-05-31T04:34:22;1.33;;;1.20;;
10939;SDS011;5522;42.696;23.494;2023-05-31T04:36:50;1.10;;;1.00;;
10939;SDS011;5522;42.696;23.494;2023-05-31T04:39:17;2.05;;;1.25;;
10939;SDS011;5522;42.696;23.494;2023-05-31T04:41:46;1.42;;;1.33;;
10939;SDS011;5522;42.696;23.494;2023-05-31T04:44:14;0.85;;;0.85;;
10939;SDS011;5522;42.696;23.494;2023-05-31T04:46:40;2.67;;;1.02;;
10939;SDS011;5522;42.696;23.494;2023-05-31T04:49:07;2.35;;;1.15;;
10939;SDS011;5522;42.696;23.494;2023-05-31T04:51:35;1.90;;;1.40;;
10939;SDS011;5522;42.696;23.494;2023-05-31T04:54:03;2.05;;;0.82;;
10939;SDS011;5522;42.696;23.494;2023-05-31T04:56:31;1.50;;;1.02;;
10939;SDS011;5522;42.696;23.494;2023-05-31T04:58:58;6.25;;;1.15;;
10939;SDS011;5522;42.696;23.494;2023-05-31T05:01:24;3.97;;;1.50;;
10939;SDS011;5522;42.696;23.494;2023-05-31T05:03:52;5.88;;;1.23;;
10939;SDS011;5522;42.696;23.494;2023-05-31T05:06:19;1.05;;;0.95;;
10939;SDS011;5522;42.696;23.494;2023-05-31T05:08:47;1.67;;;1.30;;
10939;SDS011;5522;42.696;23.494;2023-05-31T05:11:15;2.78;;;2.10;;
10939;SDS011;5522;42.696;23.494;2023-05-31T05:13:42;1.48;;;1.10;;
10939;SDS011;5522;42.696;23.494;2023-05-31T05:16:09;5.65;;;1.52;;
10939;SDS011;5522;42.696;23.494;2023-05-31T05:18:36;3.17;;;1.42;;
10939;SDS011;5522;42.696;23.494;2023-05-31T05:21:03;2.50;;;1.67;;
10939;SDS011;5522;42.696;23.494;2023-05-31T05:23:30;2.15;;;1.38;;
10939;SDS011;5522;42.696;23.494;2023-05-31T05:25:58;2.42;;;1.35;;
10939;SDS011;5522;42.696;23.494;2023-05-31T05:28:27;1.63;;;1.38;;
10939;SDS011;5522;42.696;23.494;2023-05-31T05:30:54;3.40;;;1.08;;
10939;SDS011;5522;42.696;23.494;2023-05-31T05:33:21;2.15;;;1.30;;
10939;SDS011;5522;42.696;23.494;2023-05-31T05:35:48;1.33;;;1.30;;
10939;SDS011;5522;42.696;23.494;2023-05-31T05:38:14;1.85;;;1.25;;
10939;SDS011;5522;42.696;23.494;2023-05-31T05:40:41;1.38;;;1.10;;
10939;SDS011;5522;42.696;23.494;2023-05-31T05:43:08;1.90;;;1.08;;
10939;SDS011;5522;42.696;23.494;2023-05-31T05:45:37;1.08;;;1.08;;
10939;SDS011;5522;42.696;23.494;2023-05-31T05:48:04;2.13;;;1.20;;
10939;SDS011;5522;42.696;23.494;2023-05-31T05:50:31;1.30;;;1.30;;
10939;SDS011;5522;42.696;23.494;2023-05-31T05:52:58;1.38;;;1.13;;
10939;SDS011;5522;42.696;23.494;2023-05-31T05:55:24;2.45;;;1.13;;
10939;SDS011;5522;42.696;23.494;2023-05-31T05:57:51;2.15;;;1.25;;
10939;SDS011;5522;42.696;23.494;2023-05-31T06:00:18;2.05;;;1.23;;
10939;SDS011;5522;42.696;23.494;2023-05-31T06:02:47;2.35;;;1.40;;
10939;SDS011;5522;42.696;23.494;2023-05-31T06:05:14;1.75;;;1.48;;
10939;SDS011;5522;42.696;23.494;2023-05-31T06:07:41;1.08;;;0.98;;
10939;SDS011;5522;42.696;23.494;2023-05-31T06:10:09;2.72;;;1.40;;
10939;SDS011;5522;42.696;23.494;2023-05-31T06:12:36;1.83;;;1.17;;
10939;SDS011;5522;42.696;23.494;2023-05-31T06:15:03;0.98;;;0.88;;
10939;SDS011;5522;42.696;23.494;2023-05-31T06:17:31;0.95;;;0.95;;
10939;SDS011;5522;42.696;23.494;2023-05-31T06:19:59;1.17;;;1.17;;
10939;SDS011;5522;42.696;23.494;2023-05-31T06:22:26;1.65;;;1.55;;
10939;SDS011;5522;42.696;23.494;2023-05-31T06:24:52;0.93;;;0.80;;
10939;SDS011;5522;42.696;23.494;2023-05-31T06:27:22;1.48;;;1.13;;
10939;SDS011;5522;42.696;23.494;2023-05-31T06:29:49;1.98;;;1.05;;
10939;SDS011;5522;42.696;23.494;2023-05-31T06:32:20;1.10;;;1.10;;
10939;SDS011;5522;42.696;23.494;2023-05-31T06:34:47;1.20;;;1.02;;
10939;SDS011;5522;42.696;23.494;2023-05-31T06:37:15;3.75;;;1.10;;
10939;SDS011;5522;42.696;23.494;2023-05-31T06:39:42;3.50;;;1.30;;
10939;SDS011;5522;42.696;23.494;2023-05-31T06:42:09;3.92;;;1.45;;
10939;SDS011;5522;42.696;23.494;2023-05-31T06:44:37;3.33;;;1.08;;
10939;SDS011;5522;42.696;23.494;2023-05-31T06:47:04;1.38;;;1.30;;
10939;SDS011;5522;42.696;23.494;2023-05-31T06:49:31;5.20;;;1.17;;
10939;SDS011;5522;42.696;23.494;2023-05-31T06:51:58;4.05;;;1.15;;
10939;SDS011;5522;42.696;23.494;2023-05-31T06:54:26;4.35;;;1.65;;
10939;SDS011;5522;42.696;23.494;2023-05-31T06:56:53;1.13;;;1.02;;
10939;SDS011;5522;42.696;23.494;2023-05-31T06:59:20;3.35;;;1.00;;
10939;SDS011;5522;42.696;23.494;2023-05-31T07:01:47;0.90;;;0.90;;
10939;SDS011;5522;42.696;23.494;2023-05-31T07:04:17;5.20;;;1.08;;
10939;SDS011;5522;42.696;23.494;2023-05-31T07:06:44;2.97;;;1.10;;
10939;SDS011;5522;42.696;23.494;2023-05-31T07:09:11;0.88;;;0.77;;
10939;SDS011;5522;42.696;23.494;2023-05-31T07:11:39;1.38;;;1.10;;
10939;SDS011;5522;42.696;23.494;2023-05-31T07:14:07;2.05;;;1.13;;
10939;SDS011;5522;42.696;23.494;2023-05-31T07:16:34;1.00;;;1.00;;
10939;SDS011;5522;42.696;23.494;2023-05-31T07:19:01;1.77;;;1.10;;
10939;SDS011;5522;42.696;23.494;2023-05-31T07:21:28;2.42;;;1.10;;
10939;SDS011;5522;42.696;23.494;2023-05-31T07:23:56;1.05;;;0.70;;
10939;SDS011;5522;42.696;23.494;2023-05-31T07:26:23;0.90;;;0.90;;
10939;SDS011;5522;42.696;23.494;2023-05-31T07:28:51;4.57;;;0.90;;
10939;SDS011;5522;42.696;23.494;2023-05-31T07:31:19;3.80;;;1.10;;
10939;SDS011;5522;42.696;23.494;2023-05-31T07:33:46;1.70;;;1.60;;
10939;SDS011;5522;42.696;23.494;2023-05-31T07:36:12;1.58;;;1.08;;
10939;SDS011;5522;42.696;23.494;2023-05-31T07:38:40;3.97;;;1.13;;
10939;SDS011;5522;42.696;23.494;2023-05-31T07:41:07;1.10;;;1.10;;
10939;SDS011;5522;42.696;23.494;2023-05-31T07:43:34;1.48;;;1.10;;
10939;SDS011;5522;42.696;23.494;2023-05-31T07:46:03;2.42;;;1.10;;
10939;SDS011;5522;42.696;23.494;2023-05-31T07:48:30;1.35;;;1.30;;
10939;SDS011;5522;42.696;23.494;2023-05-31T07:50:58;3.00;;;1.10;;
10939;SDS011;5522;42.696;23.494;2023-05-31T07:53:25;2.22;;;1.10;;
10939;SDS011;5522;42.696;23.494;2023-05-31T07:55:52;1.60;;;1.50;;
10939;SDS011;5522;42.696;23.494;2023-05-31T07:58:19;2.58;;;1.27;;
10939;SDS011;5522;42.696;23.494;2023-05-31T08:00:46;2.60;;;1.20;;
10939;SDS011;5522;42.696;23.494;2023-05-31T08:03:16;1.10;;;1.05;;
10939;SDS011;5522;42.696;23.494;2023-05-31T08:05:43;3.35;;;1.00;;
10939;SDS011;5522;42.696;23.494;2023-05-31T08:08:10;1.48;;;1.27;;
10939;SDS011;5522;42.696;23.494;2023-05-31T08:10:38;1.90;;;0.77;;
10939;SDS011;5522;42.696;23.494;2023-05-31T08:13:05;1.00;;;0.88;;
10939;SDS011;5522;42.696;23.494;2023-05-31T08:15:32;2.78;;;1.88;;
10939;SDS011;5522;42.696;23.494;2023-05-31T08:17:59;2.78;;;1.00;;
10939;SDS011;5522;42.696;23.494;2023-05-31T08:20:27;4.38;;;1.02;;
10939;SDS011;5522;42.696;23.494;2023-05-31T08:22:54;6.40;;;1.00;;
10939;SDS011;5522;42.696;23.494;2023-05-31T08:25:21;1.30;;;0.90;;
10939;SDS011;5522;42.696;23.494;2023-05-31T08:27:49;3.63;;;1.10;;
10939;SDS011;5522;42.696;23.494;2023-05-31T08:30:15;2.30;;;0.73;;
10939;SDS011;5522;42.696;23.494;2023-05-31T08:32:42;1.80;;;0.73;;
10939;SDS011;5522;42.696;23.494;2023-05-31T08:35:09;0.70;;;0.70;;
10939;SDS011;5522;42.696;23.494;2023-05-31T08:37:38;1.70;;;0.70;;
10939;SDS011;5522;42.696;23.494;2023-05-31T08:40:06;3.03;;;1.00;;
10939;SDS011;5522;42.696;23.494;2023-05-31T08:42:36;0.77;;;0.77;;
10939;SDS011;5522;42.696;23.494;2023-05-31T08:45:07;1.25;;;0.88;;
10939;SDS011;5522;42.696;23.494;2023-05-31T08:47:36;0.90;;;0.90;;
10939;SDS011;5522;42.696;23.494;2023-05-31T08:50:06;3.13;;;0.90;;
10939;SDS011;5522;42.696;23.494;2023-05-31T08:52:34;1.58;;;1.00;;
10939;SDS011;5522;42.696;23.494;2023-05-31T08:55:04;2.10;;;1.10;;
10939;SDS011;5522;42.696;23.494;2023-05-31T08:57:31;1.35;;;1.00;;
10939;SDS011;5522;42.696;23.494;2023-05-31T08:59:59;1.02;;;0.90;;
10939;SDS011;5522;42.696;23.494;2023-05-31T09:02:33;2.30;;;0.80;;
10939;SDS011;5522;42.696;23.494;2023-05-31T09:05:00;3.08;;;0.82;;
10939;SDS011;5522;42.696;23.494;2023-05-31T09:07:29;0.77;;;0.77;;
10939;SDS011;5522;42.696;23.494;2023-05-31T09:09:56;2.90;;;0.80;;
10939;SDS011;5522;42.696;23.494;2023-05-31T09:12:24;2.38;;;0.80;;
10939;SDS011;5522;42.696;23.494;2023-05-31T09:14:51;0.98;;;0.73;;
10939;SDS011;5522;42.696;23.494;2023-05-31T09:17:19;1.45;;;0.60;;
10939;SDS011;5522;42.696;23.494;2023-05-31T09:19:49;0.50;;;0.50;;
10939;SDS011;5522;42.696;23.494;2023-05-31T09:22:17;2.55;;;0.70;;
10939;SDS011;5522;42.696;23.494;2023-05-31T09:24:51;0.75;;;0.60;;
10939;SDS011;5522;42.696;23.494;2023-05-31T09:27:21;0.70;;;0.70;;
10939;SDS011;5522;42.696;23.494;2023-05-31T09:29:51;0.60;;;0.60;;
10939;SDS011;5522;42.696;23.494;2023-05-31T09:32:18;0.80;;;0.80;;
10939;SDS011;5522;42.696;23.494;2023-05-31T09:34:46;0.55;;;0.55;;
10939;SDS011;5522;42.696;23.494;2023-05-31T09:37:22;0.60;;;0.60;;
10939;SDS011;5522;42.696;23.494;2023-05-31T09:39:56;0.55;;;0.50;;
10939;SDS011;5522;42.696;23.494;2023-05-31T09:42:24;3.10;;;0.93;;
10939;SDS011;5522;42.696;23.494;2023-05-31T09:44:53;1.60;;;0.63;;
10939;SDS011;5522;42.696;23.494;2023-05-31T09:47:23;2.17;;;0.80;;
10939;SDS011;5522;42.696;23.494;2023-05-31T09:49:52;0.60;;;0.60;;
10939;SDS011;5522;42.696;23.494;2023-05-31T09:52:21;0.50;;;0.50;;
10939;SDS011;5522;42.696;23.494;2023-05-31T09:54:54;1.73;;;0.50;;
10939;SDS011;5522;42.696;23.494;2023-05-31T09:57:28;1.25;;;0.60;;
10939;SDS011;5522;42.696;23.494;2023-05-31T09:59:57;2.00;;;0.50;;
10939;SDS011;5522;42.696;23.494;2023-05-31T10:02:25;1.42;;;0.60;;
10939;SDS011;5522;42.696;23.494;2023-05-31T10:04:53;1.77;;;0.45;;
10939;SDS011;5522;42.696;23.494;2023-05-31T10:07:21;1.65;;;0.55;;
10939;SDS011;5522;42.696;23.494;2023-05-31T10:09:48;0.82;;;0.65;;
10939;SDS011;5522;42.696;23.494;2023-05-31T10:12:15;1.00;;;0.70;;
10939;SDS011;5522;42.696;23.494;2023-05-31T10:14:46;0.50;;;0.50;;
10939;SDS011;5522;42.696;23.494;2023-05-31T10:17:20;3.60;;;0.50;;
10939;SDS011;5522;42.696;23.494;2023-05-31T10:19:53;0.70;;;0.70;;
10939;SDS011;5522;42.696;23.494;2023-05-31T10:22:25;3.05;;;0.90;;
10939;SDS011;5522;42.696;23.494;2023-05-31T10:24:57;0.50;;;0.50;;
10939;SDS011;5522;42.696;23.494;2023-05-31T10:27:29;1.45;;;0.70;;
10939;SDS011;5522;42.696;23.494;2023-05-31T10:30:02;2.15;;;0.50;;
10939;SDS011;5522;42.696;23.494;2023-05-31T10:32:33;7.20;;;0.60;;
10939;SDS011;5522;42.696;23.494;2023-05-31T10:35:04;0.95;;;0.80;;
10939;SDS011;5522;42.696;23.494;2023-05-31T10:37:32;0.60;;;0.57;;
10939;SDS011;5522;42.696;23.494;2023-05-31T10:40:01;2.85;;;0.60;;
10939;SDS011;5522;42.696;23.494;2023-05-31T10:42:36;0.70;;;0.70;;
10939;SDS011;5522;42.696;23.494;2023-05-31T10:45:09;0.43;;;0.43;;
10939;SDS011;5522;42.696;23.494;2023-05-31T10:47:44;0.60;;;0.60;;
10939;SDS011;5522;42.696;23.494;2023-05-31T10:50:19;0.70;;;0.70;;
10939;SDS011;5522;42.696;23.494;2023-05-31T10:52:49;1.00;;;0.70;;
10939;SDS011;5522;42.696;23.494;2023-05-31T10:55:17;2.45;;;0.70;;
10939;SDS011;5522;42.696;23.494;2023-05-31T10:57:49;2.00;;;1.20;;
10939;SDS011;5522;42.696;23.494;2023-05-31T11:00:18;2.67;;;0.90;;
10939;SDS011;5522;42.696;23.494;2023-05-31T11:02:48;2.47;;;1.10;;
10939;SDS011;5522;42.696;23.494;2023-05-31T11:05:19;2.08;;;0.90;;
10939;SDS011;5522;42.696;23.494;2023-05-31T11:07:47;2.55;;;0.80;;
10939;SDS011;5522;42.696;23.494;2023-05-31T11:10:24;1.95;;;1.00;;
10939;SDS011;5522;42.696;23.494;2023-05-31T11:12:55;0.93;;;0.70;;
10939;SDS011;5522;42.696;23.494;2023-05-31T11:15:24;3.95;;;0.98;;
10939;SDS011;5522;42.696;23.494;2023-05-31T11:18:07;1.80;;;0.88;;
10939;SDS011;5522;42.696;23.494;2023-05-31T11:20:35;1.58;;;1.02;;
10939;SDS011;5522;42.696;23.494;2023-05-31T11:26:09;1.17;;;1.08;;
10939;SDS011;5522;42.696;23.494;2023-05-31T11:28:53;1.95;;;0.93;;
10939;SDS011;5522;42.696;23.494;2023-05-31T11:34:31;2.88;;;1.20;;
10939;SDS011;5522;42.696;23.494;2023-05-31T11:37:00;2.97;;;0.90;;
10939;SDS011;5522;42.696;23.494;2023-05-31T11:39:29;0.80;;;0.80;;
10939;SDS011;5522;42.696;23.494;2023-05-31T11:41:56;3.28;;;1.15;;
10939;SDS011;5522;42.696;23.494;2023-05-31T11:44:27;1.02;;;0.90;;
10939;SDS011;5522;42.696;23.494;2023-05-31T11:46:59;3.92;;;0.60;;
10939;SDS011;5522;42.696;23.494;2023-05-31T11:49:28;1.58;;;0.88;;
10939;SDS011;5522;42.696;23.494;2023-05-31T11:51:57;1.15;;;0.60;;
10939;SDS011;5522;42.696;23.494;2023-05-31T11:54:27;0.65;;;0.65;;
10939;SDS011;5522;42.696;23.494;2023-05-31T11:57:02;2.17;;;0.68;;
10939;SDS011;5522;42.696;23.494;2023-05-31T11:59:31;1.00;;;0.70;;
10939;SDS011;5522;42.696;23.494;2023-05-31T12:01:59;0.93;;;0.77;;
10939;SDS011;5522;42.696;23.494;2023-05-31T12:04:27;0.65;;;0.65;;
10939;SDS011;5522;42.696;23.494;2023-05-31T12:06:55;0.57;;;0.57;;
10939;SDS011;5522;42.696;23.494;2023-05-31T12:09:24;2.03;;;0.60;;
10939;SDS011;5522;42.696;23.494;2023-05-31T12:11:51;0.80;;;0.70;;
10939;SDS011;5522;42.696;23.494;2023-05-31T12:14:18;1.48;;;0.50;;
10939;SDS011;5522;42.696;23.494;2023-05-31T12:16:46;2.28;;;0.60;;
10939;SDS011;5522;42.696;23.494;2023-05-31T12:19:14;0.60;;;0.60;;
10939;SDS011;5522;42.696;23.494;2023-05-31T12:21:42;1.45;;;0.50;;
10939;SDS011;5522;42.696;23.494;2023-05-31T12:24:13;1.65;;;0.50;;
10939;SDS011;5522;42.696;23.494;2023-05-31T12:26:42;0.45;;;0.45;;
10939;SDS011;5522;42.696;23.494;2023-05-31T12:29:10;0.60;;;0.40;;
10939;SDS011;5522;42.696;23.494;2023-05-31T12:31:38;0.73;;;0.40;;
10939;SDS011;5522;42.696;23.494;2023-05-31T12:34:06;0.50;;;0.50;;
10939;SDS011;5522;42.696;23.494;2023-05-31T12:36:37;1.67;;;0.50;;
10939;SDS011;5522;42.696;23.494;2023-05-31T12:39:09;2.00;;;0.50;;
10939;SDS011;5522;42.696;23.494;2023-05-31T12:41:39;3.22;;;0.60;;
10939;SDS011;5522;42.696;23.494;2023-05-31T12:44:07;0.50;;;0.50;;
10939;SDS011;5522;42.696;23.494;2023-05-31T12:46:38;2.67;;;0.70;;
10939;SDS011;5522;42.696;23.494;2023-05-31T12:49:12;0.60;;;0.57;;
10939;SDS011;5522;42.696;23.494;2023-05-31T12:51:41;1.55;;;0.52;;
10939;SDS011;5522;42.696;23.494;2023-05-31T12:54:10;0.82;;;0.60;;
10939;SDS011;5522;42.696;23.494;2023-05-31T12:56:39;0.77;;;0.60;;
10939;SDS011;5522;42.696;23.494;2023-05-31T12:59:06;3.47;;;0.77;;
10939;SDS011;5522;42.696;23.494;2023-05-31T13:01:33;1.02;;;0.70;;
10939;SDS011;5522;42.696;23.494;2023-05-31T13:04:03;1.15;;;0.65;;
10939;SDS011;5522;42.696;23.494;2023-05-31T13:06:31;0.65;;;0.60;;
10939;SDS011;5522;42.696;23.494;2023-05-31T13:08:58;3.13;;;0.70;;
10939;SDS011;5522;42.696;23.494;2023-05-31T13:11:27;0.77;;;0.70;;
10939;SDS011;5522;42.696;23.494;2023-05-31T13:13:55;1.10;;;0.60;;
10939;SDS011;5522;42.696;23.494;2023-05-31T13:16:22;1.60;;;0.70;;
10939;SDS011;5522;42.696;23.494;2023-05-31T13:18:49;2.78;;;0.60;;
10939;SDS011;5522;42.696;23.494;2023-05-31T13:21:16;1.42;;;0.73;;
10939;SDS011;5522;42.696;23.494;2023-05-31T13:23:42;2.13;;;0.60;;
10939;SDS011;5522;42.696;23.494;2023-05-31T13:26:09;0.60;;;0.60;;
10939;SDS011;5522;42.696;23.494;2023-05-31T13:28:36;1.50;;;0.95;;
10939;SDS011;5522;42.696;23.494;2023-05-31T13:31:04;0.75;;;0.63;;
10939;SDS011;5522;42.696;23.494;2023-05-31T13:33:31;0.88;;;0.63;;
10939;SDS011;5522;42.696;23.494;2023-05-31T13:35:58;1.27;;;0.80;;
10939;SDS011;5522;42.696;23.494;2023-05-31T13:38:25;0.70;;;0.70;;
10939;SDS011;5522;42.696;23.494;2023-05-31T13:40:52;1.05;;;0.70;;
10939;SDS011;5522;42.696;23.494;2023-05-31T13:43:19;0.60;;;0.60;;
10939;SDS011;5522;42.696;23.494;2023-05-31T13:45:47;1.08;;;0.90;;
10939;SDS011;5522;42.696;23.494;2023-05-31T13:48:15;1.55;;;0.68;;
10939;SDS011;5522;42.696;23.494;2023-05-31T13:50:42;2.33;;;1.30;;
10939;SDS011;5522;42.696;23.494;2023-05-31T13:53:09;2.25;;;0.60;;
10939;SDS011;5522;42.696;23.494;2023-05-31T13:55:36;2.15;;;0.70;;
10939;SDS011;5522;42.696;23.494;2023-05-31T13:58:03;2.35;;;0.90;;
10939;SDS011;5522;42.696;23.494;2023-05-31T14:00:30;0.75;;;0.70;;
10939;SDS011;5522;42.696;23.494;2023-05-31T14:02:57;4.70;;;0.70;;
10939;SDS011;5522;42.696;23.494;2023-05-31T14:05:26;1.15;;;0.80;;
10939;SDS011;5522;42.696;23.494;2023-05-31T14:07:53;0.70;;;0.70;;
10939;SDS011;5522;42.696;23.494;2023-05-31T14:10:19;2.10;;;0.82;;
10939;SDS011;5522;42.696;23.494;2023-05-31T14:12:46;4.05;;;0.70;;
10939;SDS011;5522;42.696;23.494;2023-05-31T14:15:13;1.58;;;0.85;;
10939;SDS011;5522;42.696;23.494;2023-05-31T14:17:41;3.22;;;1.00;;
10939;SDS011;5522;42.696;23.494;2023-05-31T14:20:08;1.23;;;1.08;;
10939;SDS011;5522;42.696;23.494;2023-05-31T14:22:37;0.90;;;0.77;;
10939;SDS011;5522;42.696;23.494;2023-05-31T14:25:05;1.25;;;0.82;;
10939;SDS011;5522;42.696;23.494;2023-05-31T14:27:32;3.50;;;0.90;;
10939;SDS011;5522;42.696;23.494;2023-05-31T14:29:59;4.65;;;0.90;;
10939;SDS011;5522;42.696;23.494;2023-05-31T14:32:26;4.53;;;1.30;;
10939;SDS011;5522;42.696;23.494;2023-05-31T14:34:53;3.13;;;1.17;;
10939;SDS011;5522;42.696;23.494;2023-05-31T14:37:20;2.45;;;1.00;;
10939;SDS011;5522;42.696;23.494;2023-05-31T14:39:48;1.25;;;1.20;;
10939;SDS011;5522;42.696;23.494;2023-05-31T14:42:15;2.45;;;0.98;;
10939;SDS011;5522;42.696;23.494;2023-05-31T14:44:42;1.45;;;1.00;;
10939;SDS011;5522;42.696;23.494;2023-05-31T14:47:09;3.17;;;1.10;;
10939;SDS011;5522;42.696;23.494;2023-05-31T14:49:36;2.35;;;1.30;;
10939;SDS011;5522;42.696;23.494;2023-05-31T14:52:03;6.28;;;1.05;;
10939;SDS011;5522;42.696;23.494;2023-05-31T14:54:32;1.90;;;1.08;;
10939;SDS011;5522;42.696;23.494;2023-05-31T14:57:01;3.15;;;0.90;;
10939;SDS011;5522;42.696;23.494;2023-05-31T14:59:28;5.00;;;1.17;;
10939;SDS011;5522;42.696;23.494;2023-05-31T15:01:55;3.65;;;1.48;;
10939;SDS011;5522;42.696;23.494;2023-05-31T15:04:25;1.70;;;1.23;;
10939;SDS011;5522;42.696;23.494;2023-05-31T15:06:52;3.95;;;1.58;;